sensor_id;sensor_type;location;lat;lon;timestamp;pressure;altitude;pressure_sealevel;temperature;humidity
46722;BME280;32455;43.430;23.136;2023-05-10T00:00:33;98579.19;;;9.66;100.00
46722;BME280;32455;43.430;23.136;2023-05-10T00:03:19;98580.66;;;9.62;100.00
46722;BME280;32455;43.430;23.136;2023-05-10T00:06:04;98575.47;;;9.54;100.00
46722;BME280;32455;43.430;23.136;2023-05-10T00:08:50;98565.38;;;9.56;100.00
46722;BME280;32455;43.430;23.136;2023-05-10T00:11:35;98554.44;;;9.51;100.00
46722;BME280;32455;43.430;23.136;2023-05-10T00:14:21;98555.06;;;9.46;100.00
46722;BME280;32455;43.430;23.136;2023-05-10T00:17:06;98564.13;;;9.72;100.00
46722;BME280;32455;43.430;23.136;2023-05-10T00:19:51;98564.34;;;9.64;100.00
46722;BME280;32455;43.430;23.136;2023-05-10T00:22:36;98555.69;;;9.62;100.00
46722;BME280;32455;43.430;23.136;2023-05-10T00:25:22;98549.06;;;9.58;100.00
46722;BME280;32455;43.430;23.136;2023-05-10T00:28:07;98553.00;;;9.55;100.00
46722;BME280;32455;43.430;23.136;2023-05-10T00:30:53;98551.34;;;9.47;100.00
46722;BME280;32455;43.430;23.136;2023-05-10T00:33:38;98556.50;;;9.56;100.00
46722;BME280;32455;43.430;23.136;2023-05-10T00:36:23;98552.56;;;9.58;100.00
46722;BME280;32455;43.430;23.136;2023-05-10T00:39:08;98549.28;;;9.56;100.00
46722;BME280;32455;43.430;23.136;2023-05-10T00:41:54;98551.97;;;9.49;100.00
46722;BME280;32455;43.430;23.136;2023-05-10T00:44:39;98552.78;;;9.43;100.00
46722;BME280;32455;43.430;23.136;2023-05-10T00:47:25;98532.97;;;9.38;100.00
46722;BME280;32455;43.430;23.136;2023-05-10T00:50:11;98540.81;;;9.39;100.00
46722;BME280;32455;43.430;23.136;2023-05-10T00:52:57;98535.66;;;9.31;100.00
46722;BME280;32455;43.430;23.136;2023-05-10T00:55:44;98534.84;;;9.31;100.00
46722;BME280;32455;43.430;23.136;2023-05-10T00:58:29;98536.50;;;9.25;100.00
46722;BME280;32455;43.430;23.136;2023-05-10T01:01:16;98545.16;;;9.34;100.00
46722;BME280;32455;43.430;23.136;2023-05-10T01:04:01;98534.41;;;9.27;100.00
46722;BME280;32455;43.430;23.136;2023-05-10T01:06:47;98539.34;;;9.23;100.00
46722;BME280;32455;43.430;23.136;2023-05-10T01:09:33;98540.19;;;9.24;100.00
46722;BME280;32455;43.430;23.136;2023-05-10T01:12:19;98515.00;;;9.12;100.00
46722;BME280;32455;43.430;23.136;2023-05-10T01:15:06;98538.13;;;9.33;100.00
46722;BME280;32455;43.430;23.136;2023-05-10T01:17:52;98511.09;;;9.08;100.00
46722;BME280;32455;43.430;23.136;2023-05-10T01:20:43;98528.22;;;9.13;100.00
46722;BME280;32455;43.430;23.136;2023-05-10T01:24:03;98526.97;;;8.96;100.00
46722;BME280;32455;43.430;23.136;2023-05-10T01:36:26;98509.84;;;8.97;100.00
46722;BME280;32455;43.430;23.136;2023-05-10T01:39:24;98521.41;;;9.04;100.00
46722;BME280;32455;43.430;23.136;2023-05-10T01:42:15;98512.72;;;9.02;100.00
46722;BME280;32455;43.430;23.136;2023-05-10T01:48:09;98501.41;;;9.00;100.00
46722;BME280;32455;43.430;23.136;2023-05-10T01:50:56;98500.75;;;8.85;100.00
46722;BME280;32455;43.430;23.136;2023-05-10T01:53:46;98506.56;;;9.01;100.00
46722;BME280;32455;43.430;23.136;2023-05-10T01:56:35;98503.66;;;8.96;100.00
46722;BME280;32455;43.430;23.136;2023-05-10T01:59:29;98504.69;;;9.02;100.00
46722;BME280;32455;43.430;23.136;2023-05-10T02:02:15;98505.94;;;9.06;100.00
46722;BME280;32455;43.430;23.136;2023-05-10T02:05:04;98503.91;;;9.08;100.00
46722;BME280;32455;43.430;23.136;2023-05-10T02:07:51;98496.88;;;9.00;100.00
46722;BME280;32455;43.430;23.136;2023-05-10T02:10:39;98493.16;;;9.01;100.00
46722;BME280;32455;43.430;23.136;2023-05-10T02:13:25;98499.97;;;9.11;100.00
46722;BME280;32455;43.430;23.136;2023-05-10T02:16:12;98491.72;;;9.06;100.00
46722;BME280;32455;43.430;23.136;2023-05-10T02:18:59;98491.69;;;8.99;100.00
46722;BME280;32455;43.430;23.136;2023-05-10T02:21:46;98488.59;;;9.02;100.00
46722;BME280;32455;43.430;23.136;2023-05-10T02:24:33;98493.75;;;9.03;100.00
46722;BME280;32455;43.430;23.136;2023-05-10T02:27:19;98491.09;;;9.10;100.00
46722;BME280;32455;43.430;23.136;2023-05-10T02:30:06;98493.38;;;9.00;100.00
46722;BME280;32455;43.430;23.136;2023-05-10T02:32:52;98483.66;;;8.99;100.00
46722;BME280;32455;43.430;23.136;2023-05-10T02:35:38;98489.25;;;9.04;100.00
46722;BME280;32455;43.430;23.136;2023-05-10T02:38:25;98481.00;;;9.06;100.00
46722;BME280;32455;43.430;23.136;2023-05-10T02:41:12;98478.09;;;8.94;100.00
46722;BME280;32455;43.430;23.136;2023-05-10T02:43:59;98482.81;;;8.98;100.00
46722;BME280;32455;43.430;23.136;2023-05-10T02:46:48;98493.16;;;9.01;100.00
46722;BME280;32455;43.430;23.136;2023-05-10T02:49:33;98491.09;;;9.10;100.00
46722;BME280;32455;43.430;23.136;2023-05-10T02:52:23;98497.28;;;9.04;100.00
46722;BME280;32455;43.430;23.136;2023-05-10T02:55:12;98476.25;;;8.88;100.00
46722;BME280;32455;43.430;23.136;2023-05-10T02:58:00;98483.25;;;8.89;100.00
46722;BME280;32455;43.430;23.136;2023-05-10T03:00:46;98485.50;;;8.98;100.00
46722;BME280;32455;43.430;23.136;2023-05-10T03:03:32;98492.53;;;8.93;100.00
46722;BME280;32455;43.430;23.136;2023-05-10T03:06:17;98499.09;;;8.90;100.00
46722;BME280;32455;43.430;23.136;2023-05-10T03:09:04;98491.47;;;8.94;100.00
46722;BME280;32455;43.430;23.136;2023-05-10T03:12:10;98490.25;;;8.90;100.00
46722;BME280;32455;43.430;23.136;2023-05-10T03:15:13;98495.00;;;8.88;100.00
46722;BME280;32455;43.430;23.136;2023-05-10T03:18:09;98477.66;;;8.84;100.00
46722;BME280;32455;43.430;23.136;2023-05-10T03:20:59;98491.88;;;8.71;100.00
46722;BME280;32455;43.430;23.136;2023-05-10T03:23:52;98482.56;;;8.73;100.00
46722;BME280;32455;43.430;23.136;2023-05-10T03:26:44;98480.97;;;8.79;100.00
46722;BME280;32455;43.430;23.136;2023-05-10T03:29:31;98493.34;;;8.87;100.00
46722;BME280;32455;43.430;23.136;2023-05-10T03:32:17;98495.38;;;8.85;100.00
46722;BME280;32455;43.430;23.136;2023-05-10T03:35:10;98491.25;;;8.75;100.00
46722;BME280;32455;43.430;23.136;2023-05-10T03:37:56;98488.78;;;8.74;100.00
46722;BME280;32455;43.430;23.136;2023-05-10T03:40:42;98483.66;;;8.79;100.00
46722;BME280;32455;43.430;23.136;2023-05-10T03:43:27;98486.28;;;8.72;100.00
46722;BME280;32455;43.430;23.136;2023-05-10T03:46:12;98480.91;;;8.59;100.00
46722;BME280;32455;43.430;23.136;2023-05-10T03:48:58;98477.66;;;8.70;100.00
46722;BME280;32455;43.430;23.136;2023-05-10T03:51:42;98486.09;;;8.74;100.00
46722;BME280;32455;43.430;23.136;2023-05-10T03:54:27;98477.44;;;8.85;100.00
46722;BME280;32455;43.430;23.136;2023-05-10T03:57:13;98476.00;;;8.69;100.00
46722;BME280;32455;43.430;23.136;2023-05-10T03:59:58;98479.69;;;8.68;100.00
46722;BME280;32455;43.430;23.136;2023-05-10T04:02:43;98497.84;;;8.86;100.00
46722;BME280;32455;43.430;23.136;2023-05-10T04:05:29;98496.19;;;8.65;100.00
46722;BME280;32455;43.430;23.136;2023-05-10T04:08:14;98492.06;;;8.76;100.00
46722;BME280;32455;43.430;23.136;2023-05-10T04:11:07;98508.16;;;8.76;100.00
46722;BME280;32455;43.430;23.136;2023-05-10T04:13:53;98497.22;;;8.71;100.00
46722;BME280;32455;43.430;23.136;2023-05-10T04:16:38;98508.78;;;8.85;100.00
46722;BME280;32455;43.430;23.136;2023-05-10T04:19:23;98493.72;;;8.77;100.00
46722;BME280;32455;43.430;23.136;2023-05-10T04:22:07;98502.59;;;8.84;100.00
46722;BME280;32455;43.430;23.136;2023-05-10T04:24:53;98493.91;;;8.69;100.00
46722;BME280;32455;43.430;23.136;2023-05-10T04:27:38;98485.22;;;8.60;100.00
46722;BME280;32455;43.430;23.136;2023-05-10T04:30:23;98480.31;;;8.57;100.00
46722;BME280;32455;43.430;23.136;2023-05-10T04:33:09;98495.38;;;8.71;100.00
46722;BME280;32455;43.430;23.136;2023-05-10T04:35:54;98491.66;;;8.72;100.00
46722;BME280;32455;43.430;23.136;2023-05-10T04:38:39;98492.88;;;8.63;100.00
46722;BME280;32455;43.430;23.136;2023-05-10T04:41:25;98497.63;;;8.68;100.00
46722;BME280;32455;43.430;23.136;2023-05-10T04:44:10;98498.06;;;8.78;100.00
46722;BME280;32455;43.430;23.136;2023-05-10T04:46:56;98501.78;;;8.84;100.00
46722;BME280;32455;43.430;23.136;2023-05-10T04:49:41;98510.41;;;8.72;100.00
46722;BME280;32455;43.430;23.136;2023-05-10T04:52:26;98513.50;;;8.76;100.00
46722;BME280;32455;43.430;23.136;2023-05-10T04:55:11;98500.28;;;8.68;100.00
46722;BME280;32455;43.430;23.136;2023-05-10T04:57:56;98507.13;;;8.77;100.00
46722;BME280;32455;43.430;23.136;2023-05-10T05:00:44;98490.44;;;8.82;100.00
46722;BME280;32455;43.430;23.136;2023-05-10T05:03:29;98495.38;;;8.85;100.00
46722;BME280;32455;43.430;23.136;2023-05-10T05:06:15;98496.63;;;8.89;100.00
46722;BME280;32455;43.430;23.136;2023-05-10T05:09:00;98486.50;;;8.77;100.00
46722;BME280;32455;43.430;23.136;2023-05-10T05:11:45;98504.06;;;8.87;100.00
46722;BME280;32455;43.430;23.136;2023-05-10T05:14:31;98497.28;;;8.91;100.00
46722;BME280;32455;43.430;23.136;2023-05-10T05:17:16;98506.94;;;8.85;100.00
46722;BME280;32455;43.430;23.136;2023-05-10T05:20:01;98501.75;;;8.77;100.00
46722;BME280;32455;43.430;23.136;2023-05-10T05:22:47;98506.72;;;8.80;100.00
46722;BME280;32455;43.430;23.136;2023-05-10T05:25:33;98493.28;;;8.73;100.00
46722;BME280;32455;43.430;23.136;2023-05-10T05:28:21;98502.59;;;8.84;100.00
46722;BME280;32455;43.430;23.136;2023-05-10T05:31:07;98487.34;;;8.71;100.00
46722;BME280;32455;43.430;23.136;2023-05-10T05:33:52;98496.41;;;8.77;100.00
46722;BME280;32455;43.430;23.136;2023-05-10T05:36:37;98505.25;;;8.77;100.00
46722;BME280;32455;43.430;23.136;2023-05-10T05:39:26;98500.75;;;8.78;100.00
46722;BME280;32455;43.430;23.136;2023-05-10T05:42:12;98511.03;;;8.81;100.00
46722;BME280;32455;43.430;23.136;2023-05-10T05:44:57;98491.25;;;8.82;100.00
46722;BME280;32455;43.430;23.136;2023-05-10T05:47:42;98509.22;;;8.88;100.00
46722;BME280;32455;43.430;23.136;2023-05-10T05:50:28;98503.00;;;8.81;100.00
46722;BME280;32455;43.430;23.136;2023-05-10T05:53:13;98512.94;;;8.94;100.00
46722;BME280;32455;43.430;23.136;2023-05-10T05:55:58;98515.19;;;8.84;100.00
46722;BME280;32455;43.430;23.136;2023-05-10T05:58:43;98512.69;;;8.75;100.00
46722;BME280;32455;43.430;23.136;2023-05-10T06:01:28;98522.41;;;8.83;100.00
46722;BME280;32455;43.430;23.136;2023-05-10T06:04:13;98511.69;;;8.83;100.00
46722;BME280;32455;43.430;23.136;2023-05-10T06:06:58;98509.00;;;8.90;100.00
46722;BME280;32455;43.430;23.136;2023-05-10T06:09:43;98499.72;;;8.79;100.00
46722;BME280;32455;43.430;23.136;2023-05-10T06:12:29;98520.97;;;8.94;100.00
46722;BME280;32455;43.430;23.136;2023-05-10T06:15:14;98507.13;;;8.90;100.00
46722;BME280;32455;43.430;23.136;2023-05-10T06:18:00;98512.91;;;8.81;100.00
46722;BME280;32455;43.430;23.136;2023-05-10T06:20:45;98528.19;;;8.87;100.00
46722;BME280;32455;43.430;23.136;2023-05-10T06:23:31;98530.44;;;8.90;100.00
46722;BME280;32455;43.430;23.136;2023-05-10T06:26:16;98535.22;;;9.01;100.00
46722;BME280;32455;43.430;23.136;2023-05-10T06:29:01;98538.09;;;8.99;100.00
46722;BME280;32455;43.430;23.136;2023-05-10T06:31:46;98532.75;;;8.99;100.00
46722;BME280;32455;43.430;23.136;2023-05-10T06:34:31;98528.41;;;8.92;100.00
46722;BME280;32455;43.430;23.136;2023-05-10T06:37:17;98538.94;;;9.00;100.00
46722;BME280;32455;43.430;23.136;2023-05-10T06:40:02;98537.47;;;8.97;100.00
46722;BME280;32455;43.430;23.136;2023-05-10T06:42:48;98537.03;;;8.87;100.00
46722;BME280;32455;43.430;23.136;2023-05-10T06:45:33;98537.91;;;9.01;100.00
46722;BME280;32455;43.430;23.136;2023-05-10T06:48:18;98543.41;;;8.86;100.00
46722;BME280;32455;43.430;23.136;2023-05-10T06:51:04;98534.56;;;8.99;100.00
46722;BME280;32455;43.430;23.136;2023-05-10T06:53:49;98529.00;;;8.87;100.00
46722;BME280;32455;43.430;23.136;2023-05-10T06:56:34;98530.88;;;8.93;100.00
46722;BME280;32455;43.430;23.136;2023-05-10T06:59:19;98526.75;;;8.91;100.00
46722;BME280;32455;43.430;23.136;2023-05-10T07:02:06;98542.22;;;9.02;100.00
46722;BME280;32455;43.430;23.136;2023-05-10T07:04:51;98529.84;;;9.01;100.00
46722;BME280;32455;43.430;23.136;2023-05-10T07:07:37;98547.81;;;9.14;100.00
46722;BME280;32455;43.430;23.136;2023-05-10T07:10:22;98544.31;;;9.26;100.00
46722;BME280;32455;43.430;23.136;2023-05-10T07:13:08;98547.41;;;9.23;100.00
46722;BME280;32455;43.430;23.136;2023-05-10T07:15:53;98545.75;;;9.29;100.00
46722;BME280;32455;43.430;23.136;2023-05-10T07:18:38;98548.44;;;9.22;100.00
46722;BME280;32455;43.430;23.136;2023-05-10T07:21:24;98542.06;;;9.17;100.00
46722;BME280;32455;43.430;23.136;2023-05-10T07:24:09;98538.75;;;9.21;100.00
46722;BME280;32455;43.430;23.136;2023-05-10T07:26:55;98540.63;;;9.21;100.00
46722;BME280;32455;43.430;23.136;2023-05-10T07:29:41;98547.84;;;9.40;100.00
46722;BME280;32455;43.430;23.136;2023-05-10T07:32:26;98550.09;;;9.37;100.00
46722;BME280;32455;43.430;23.136;2023-05-10T07:35:11;98548.44;;;9.36;100.00
46722;BME280;32455;43.430;23.136;2023-05-10T07:37:56;98549.91;;;9.25;100.00
46722;BME280;32455;43.430;23.136;2023-05-10T07:40:41;98542.47;;;9.34;100.00
46722;BME280;32455;43.430;23.136;2023-05-10T07:43:26;98544.94;;;9.42;100.00
46722;BME280;32455;43.430;23.136;2023-05-10T07:46:11;98563.09;;;9.40;100.00
46722;BME280;32455;43.430;23.136;2023-05-10T07:48:57;98553.41;;;9.32;100.00
46722;BME280;32455;43.430;23.136;2023-05-10T07:51:42;98550.72;;;9.25;100.00
46722;BME280;32455;43.430;23.136;2023-05-10T07:54:27;98554.84;;;9.35;100.00
46722;BME280;32455;43.430;23.136;2023-05-10T07:57:12;98552.97;;;9.42;100.00
46722;BME280;32455;43.430;23.136;2023-05-10T08:00:00;98546.81;;;9.48;100.00
46722;BME280;32455;43.430;23.136;2023-05-10T08:02:45;98537.53;;;9.44;100.00
46722;BME280;32455;43.430;23.136;2023-05-10T08:05:30;98557.13;;;9.51;100.00
46722;BME280;32455;43.430;23.136;2023-05-10T08:08:16;98554.03;;;9.61;100.00
46722;BME280;32455;43.430;23.136;2023-05-10T08:11:01;98553.84;;;9.56;100.00
46722;BME280;32455;43.430;23.136;2023-05-10T08:13:47;98536.06;;;9.48;100.00
46722;BME280;32455;43.430;23.136;2023-05-10T08:16:33;98546.81;;;9.68;100.00
46722;BME280;32455;43.430;23.136;2023-05-10T08:19:19;98561.03;;;9.75;100.00
46722;BME280;32455;43.430;23.136;2023-05-10T08:22:06;98548.03;;;9.78;100.00
46722;BME280;32455;43.430;23.136;2023-05-10T08:24:52;98566.38;;;9.88;100.00
46722;BME280;32455;43.430;23.136;2023-05-10T08:27:37;98559.78;;;9.84;100.00
46722;BME280;32455;43.430;23.136;2023-05-10T08:30:23;98566.19;;;9.83;100.00
46722;BME280;32455;43.430;23.136;2023-05-10T08:33:08;98562.06;;;9.94;100.00
46722;BME280;32455;43.430;23.136;2023-05-10T08:35:54;98568.84;;;9.96;100.00
46722;BME280;32455;43.430;23.136;2023-05-10T08:38:40;98567.44;;;9.94;100.00
46722;BME280;32455;43.430;23.136;2023-05-10T08:41:25;98577.69;;;10.10;100.00
46722;BME280;32455;43.430;23.136;2023-05-10T08:44:11;98564.91;;;10.25;100.00
46722;BME280;32455;43.430;23.136;2023-05-10T08:46:57;98564.91;;;10.32;100.00
46722;BME280;32455;43.430;23.136;2023-05-10T08:49:46;98564.63;;;10.47;100.00
46722;BME280;32455;43.430;23.136;2023-05-10T08:52:33;98552.47;;;10.38;100.00
46722;BME280;32455;43.430;23.136;2023-05-10T08:55:23;98562.50;;;10.62;100.00
46722;BME280;32455;43.430;23.136;2023-05-10T08:58:09;98571.34;;;10.69;100.00
46722;BME280;32455;43.430;23.136;2023-05-10T09:00:55;98566.81;;;10.70;100.00
46722;BME280;32455;43.430;23.136;2023-05-10T09:03:42;98575.97;;;10.56;100.00
46722;BME280;32455;43.430;23.136;2023-05-10T09:06:28;98566.28;;;10.48;100.00
46722;BME280;32455;43.430;23.136;2023-05-10T09:09:14;98559.66;;;10.50;100.00
46722;BME280;32455;43.430;23.136;2023-05-10T09:12:00;98558.63;;;10.51;100.00
46722;BME280;32455;43.430;23.136;2023-05-10T09:14:46;98566.84;;;10.57;100.00
46722;BME280;32455;43.430;23.136;2023-05-10T09:17:31;98566.03;;;10.63;100.00
46722;BME280;32455;43.430;23.136;2023-05-10T09:20:17;98569.88;;;10.73;100.00
46722;BME280;32455;43.430;23.136;2023-05-10T09:23:02;98572.56;;;10.80;100.00
46722;BME280;32455;43.430;23.136;2023-05-10T09:25:47;98576.06;;;10.81;100.00
46722;BME280;32455;43.430;23.136;2023-05-10T09:28:33;98568.41;;;10.84;100.00
46722;BME280;32455;43.430;23.136;2023-05-10T09:31:19;98571.44;;;10.94;100.00
46722;BME280;32455;43.430;23.136;2023-05-10T09:34:04;98563.94;;;11.10;100.00
46722;BME280;32455;43.430;23.136;2023-05-10T09:37:01;98559.88;;;11.25;100.00
46722;BME280;32455;43.430;23.136;2023-05-10T09:39:47;98550.59;;;11.21;100.00
46722;BME280;32455;43.430;23.136;2023-05-10T09:42:42;98550.50;;;11.35;100.00
46722;BME280;32455;43.430;23.136;2023-05-10T09:45:30;98554.78;;;11.42;100.00
46722;BME280;32455;43.430;23.136;2023-05-10T09:48:15;98547.81;;;11.35;100.00
46722;BME280;32455;43.430;23.136;2023-05-10T09:51:01;98555.34;;;11.51;100.00
46722;BME280;32455;43.430;23.136;2023-05-10T09:53:46;98535.25;;;11.53;100.00
46722;BME280;32455;43.430;23.136;2023-05-10T09:56:35;98533.34;;;11.61;100.00
46722;BME280;32455;43.430;23.136;2023-05-10T09:59:26;98531.13;;;11.76;100.00
46722;BME280;32455;43.430;23.136;2023-05-10T10:02:13;98530.44;;;11.87;100.00
46722;BME280;32455;43.430;23.136;2023-05-10T10:05:01;98530.06;;;12.02;100.00
46722;BME280;32455;43.430;23.136;2023-05-10T10:07:48;98526.78;;;12.18;100.00
46722;BME280;32455;43.430;23.136;2023-05-10T10:10:35;98522.81;;;12.02;100.00
46722;BME280;32455;43.430;23.136;2023-05-10T10:13:21;98523.28;;;12.18;100.00
46722;BME280;32455;43.430;23.136;2023-05-10T10:16:08;98516.75;;;12.25;100.00
46722;BME280;32455;43.430;23.136;2023-05-10T10:18:54;98528.06;;;12.34;100.00
46722;BME280;32455;43.430;23.136;2023-05-10T10:21:40;98531.03;;;12.44;100.00
46722;BME280;32455;43.430;23.136;2023-05-10T10:24:25;98513.59;;;12.47;100.00
46722;BME280;32455;43.430;23.136;2023-05-10T10:36:12;98493.91;;;13.07;100.00
46722;BME280;32455;43.430;23.136;2023-05-10T10:39:01;98500.53;;;13.22;100.00
46722;BME280;32455;43.430;23.136;2023-05-10T10:41:55;98505.22;;;13.27;100.00
46722;BME280;32455;43.430;23.136;2023-05-10T10:44:40;98511.59;;;13.44;100.00
46722;BME280;32455;43.430;23.136;2023-05-10T10:47:29;98506.69;;;13.53;100.00
46722;BME280;32455;43.430;23.136;2023-05-10T10:50:18;98506.22;;;13.56;100.00
46722;BME280;32455;43.430;23.136;2023-05-10T10:53:11;98503.53;;;13.56;100.00
46722;BME280;32455;43.430;23.136;2023-05-10T10:56:23;98501.63;;;13.57;100.00
46722;BME280;32455;43.430;23.136;2023-05-10T10:59:09;98505.75;;;13.59;100.00
46722;BME280;32455;43.430;23.136;2023-05-10T11:01:54;98510.13;;;13.72;100.00
46722;BME280;32455;43.430;23.136;2023-05-10T11:04:43;98518.78;;;13.74;100.00
46722;BME280;32455;43.430;23.136;2023-05-10T11:07:31;98507.78;;;13.75;100.00
46722;BME280;32455;43.430;23.136;2023-05-10T11:10:20;98488.88;;;13.75;100.00
46722;BME280;32455;43.430;23.136;2023-05-10T11:13:09;98493.19;;;13.76;100.00
46722;BME280;32455;43.430;23.136;2023-05-10T11:15:55;98494.63;;;13.79;100.00
46722;BME280;32455;43.430;23.136;2023-05-10T11:22:11;98499.63;;;13.99;100.00
46722;BME280;32455;43.430;23.136;2023-05-10T11:24:58;98498.81;;;13.98;100.00
46722;BME280;32455;43.430;23.136;2023-05-10T11:27:43;98500.81;;;14.03;100.00
46722;BME280;32455;43.430;23.136;2023-05-10T11:30:29;98486.47;;;14.02;100.00
46722;BME280;32455;43.430;23.136;2023-05-10T11:33:18;98487.03;;;14.16;100.00
46722;BME280;32455;43.430;23.136;2023-05-10T11:36:05;98500.75;;;14.38;100.00
46722;BME280;32455;43.430;23.136;2023-05-10T11:38:51;98492.53;;;14.33;100.00
46722;BME280;32455;43.430;23.136;2023-05-10T11:41:37;98476.13;;;14.23;100.00
46722;BME280;32455;43.430;23.136;2023-05-10T11:44:22;98478.31;;;14.26;100.00
46722;BME280;32455;43.430;23.136;2023-05-10T11:47:08;98485.84;;;14.36;100.00
46722;BME280;32455;43.430;23.136;2023-05-10T11:49:53;98488.00;;;14.22;100.00
46722;BME280;32455;43.430;23.136;2023-05-10T11:52:38;98471.72;;;14.34;100.00
46722;BME280;32455;43.430;23.136;2023-05-10T11:55:24;98473.13;;;14.36;100.00
46722;BME280;32455;43.430;23.136;2023-05-10T11:58:09;98476.75;;;14.42;100.00
46722;BME280;32455;43.430;23.136;2023-05-10T12:00:55;98464.44;;;14.34;100.00
46722;BME280;32455;43.430;23.136;2023-05-10T12:03:40;98466.75;;;14.42;100.00
46722;BME280;32455;43.430;23.136;2023-05-10T12:06:30;98474.66;;;14.44;100.00
46722;BME280;32455;43.430;23.136;2023-05-10T12:09:16;98464.56;;;14.39;100.00
46722;BME280;32455;43.430;23.136;2023-05-10T12:12:02;98475.13;;;14.41;100.00
46722;BME280;32455;43.430;23.136;2023-05-10T12:14:50;98473.81;;;14.55;100.00
46722;BME280;32455;43.430;23.136;2023-05-10T12:17:37;98473.81;;;14.55;100.00
46722;BME280;32455;43.430;23.136;2023-05-10T12:20:26;98472.66;;;14.39;100.00
46722;BME280;32455;43.430;23.136;2023-05-10T12:23:13;98470.44;;;14.36;100.00
46722;BME280;32455;43.430;23.136;2023-05-10T12:26:03;98454.94;;;14.32;100.00
46722;BME280;32455;43.430;23.136;2023-05-10T12:28:52;98451.53;;;14.24;100.00
46722;BME280;32455;43.430;23.136;2023-05-10T12:31:55;98460.97;;;14.22;100.00
46722;BME280;32455;43.430;23.136;2023-05-10T12:34:41;98459.22;;;14.04;100.00
46722;BME280;32455;43.430;23.136;2023-05-10T12:37:27;98466.50;;;14.03;100.00
46722;BME280;32455;43.430;23.136;2023-05-10T12:40:13;98461.81;;;14.11;100.00
46722;BME280;32455;43.430;23.136;2023-05-10T12:42:59;98448.03;;;14.12;100.00
46722;BME280;32455;43.430;23.136;2023-05-10T12:45:44;98457.47;;;14.38;100.00
46722;BME280;32455;43.430;23.136;2023-05-10T12:48:33;98446.47;;;14.28;100.00
46722;BME280;32455;43.430;23.136;2023-05-10T12:51:19;98447.03;;;14.30;100.00
46722;BME280;32455;43.430;23.136;2023-05-10T12:54:06;98443.50;;;14.41;100.00
46722;BME280;32455;43.430;23.136;2023-05-10T12:56:51;98428.03;;;14.25;99.40
46722;BME280;32455;43.430;23.136;2023-05-10T12:59:37;98434.69;;;14.34;100.00
46722;BME280;32455;43.430;23.136;2023-05-10T13:02:22;98426.13;;;14.37;100.00
46722;BME280;32455;43.430;23.136;2023-05-10T13:05:08;98431.63;;;14.42;100.00
46722;BME280;32455;43.430;23.136;2023-05-10T13:07:53;98439.69;;;14.66;98.05
46722;BME280;32455;43.430;23.136;2023-05-10T13:10:39;98425.69;;;14.69;96.42
46722;BME280;32455;43.430;23.136;2023-05-10T13:13:24;98428.16;;;14.87;95.99
46722;BME280;32455;43.430;23.136;2023-05-10T13:16:09;98421.97;;;14.75;95.02
46722;BME280;32455;43.430;23.136;2023-05-10T13:18:54;98426.72;;;14.68;93.24
46722;BME280;32455;43.430;23.136;2023-05-10T13:21:40;98412.53;;;14.61;96.42
46722;BME280;32455;43.430;23.136;2023-05-10T13:24:29;98422.81;;;14.75;92.87
46722;BME280;32455;43.430;23.136;2023-05-10T13:27:15;98399.44;;;14.69;97.57
46722;BME280;32455;43.430;23.136;2023-05-10T13:30:00;98411.00;;;14.65;97.01
46722;BME280;32455;43.430;23.136;2023-05-10T13:32:46;98410.09;;;14.47;92.84
46722;BME280;32455;43.430;23.136;2023-05-10T13:35:31;98405.91;;;14.40;89.92
46722;BME280;32455;43.430;23.136;2023-05-10T13:38:15;98391.00;;;14.66;94.42
46722;BME280;32455;43.430;23.136;2023-05-10T13:41:00;98385.91;;;14.69;96.14
46722;BME280;32455;43.430;23.136;2023-05-10T13:43:46;98390.41;;;14.64;94.38
46722;BME280;32455;43.430;23.136;2023-05-10T13:46:33;98388.69;;;14.46;92.25
46722;BME280;32455;43.430;23.136;2023-05-10T13:49:18;98392.13;;;14.53;90.62
46722;BME280;32455;43.430;23.136;2023-05-10T13:52:04;98387.19;;;14.38;92.38
46722;BME280;32455;43.430;23.136;2023-05-10T13:54:53;98360.16;;;14.38;93.39
46722;BME280;32455;43.430;23.136;2023-05-10T13:57:40;98383.47;;;14.39;98.20
46722;BME280;32455;43.430;23.136;2023-05-10T14:00:25;98376.38;;;14.38;94.76
46722;BME280;32455;43.430;23.136;2023-05-10T14:03:11;98375.44;;;14.44;95.08
46722;BME280;32455;43.430;23.136;2023-05-10T14:05:56;98371.88;;;14.56;98.78
46722;BME280;32455;43.430;23.136;2023-05-10T14:08:41;98381.13;;;14.60;98.62
46722;BME280;32455;43.430;23.136;2023-05-10T14:11:27;98377.94;;;14.63;93.98
46722;BME280;32455;43.430;23.136;2023-05-10T14:14:12;98386.88;;;14.63;95.15
46722;BME280;32455;43.430;23.136;2023-05-10T14:16:58;98374.28;;;14.40;100.00
46722;BME280;32455;43.430;23.136;2023-05-10T14:19:44;98361.88;;;14.27;100.00
46722;BME280;32455;43.430;23.136;2023-05-10T14:22:29;98368.56;;;14.25;100.00
46722;BME280;32455;43.430;23.136;2023-05-10T14:25:15;98372.22;;;14.31;100.00
46722;BME280;32455;43.430;23.136;2023-05-10T14:28:00;98370.31;;;14.31;100.00
46722;BME280;32455;43.430;23.136;2023-05-10T14:30:46;98371.78;;;14.22;100.00
46722;BME280;32455;43.430;23.136;2023-05-10T14:33:31;98367.66;;;14.19;100.00
46722;BME280;32455;43.430;23.136;2023-05-10T14:36:17;98375.94;;;14.29;100.00
46722;BME280;32455;43.430;23.136;2023-05-10T14:39:02;98372.63;;;14.39;100.00
46722;BME280;32455;43.430;23.136;2023-05-10T14:41:48;98380.22;;;14.54;100.00
46722;BME280;32455;43.430;23.136;2023-05-10T14:44:33;98359.22;;;14.44;100.00
46722;BME280;32455;43.430;23.136;2023-05-10T14:47:19;98364.97;;;14.48;100.00
46722;BME280;32455;43.430;23.136;2023-05-10T14:50:04;98377.78;;;14.52;100.00
46722;BME280;32455;43.430;23.136;2023-05-10T14:52:50;98373.41;;;14.51;100.00